Signal Hill, California
Current Conditions -  °F | °C
As of 6:53 PM on Wednesday 26 Nov 2014 (Local Time) from KLGB Reporting Station
Clear Clear  
Wind Chill: 67°   Ceiling: Unl
Heat Index: 67°   Visibility: 10mi
Dew Point: 39°   Wind: 6mph
Humidity: 36%   Direction: 320°NW
Pressure: 30.12"   Gusts: NA
Location:  33.8°N, 118.16°W
Report Text: KLGB 270253Z 32005KT 10SM CLR 19/04 A3012 RMK AO2 SLP200 T01940039 53003
Loading
Personal Weather Stations






























Interactive Weather Map New forecast layout! Learn more

10-Day Weather Forecast

Advertisements
Track Severe Weather on mobile